sensor_id;sensor_type;location;lat;lon;timestamp;temperature;humidity
47368;DHT22;34646;47.964;7.982;2022-11-23T00:01:31;17.20;72.60
47368;DHT22;34646;47.964;7.982;2022-11-23T00:07:32;17.20;72.60
47368;DHT22;34646;47.964;7.982;2022-11-23T00:13:33;17.20;72.50
47368;DHT22;34646;47.964;7.982;2022-11-23T00:19:34;17.20;72.60
47368;DHT22;34646;47.964;7.982;2022-11-23T00:25:35;17.20;72.60
47368;DHT22;34646;47.964;7.982;2022-11-23T00:31:36;17.20;72.50
47368;DHT22;34646;47.964;7.982;2022-11-23T00:37:40;17.10;72.50
47368;DHT22;34646;47.964;7.982;2022-11-23T00:43:41;17.10;72.50
47368;DHT22;34646;47.964;7.982;2022-11-23T00:49:41;17.10;72.40
47368;DHT22;34646;47.964;7.982;2022-11-23T00:55:50;17.10;72.50
47368;DHT22;34646;47.964;7.982;2022-11-23T01:01:51;17.10;72.50
47368;DHT22;34646;47.964;7.982;2022-11-23T01:07:52;17.10;72.50
47368;DHT22;34646;47.964;7.982;2022-11-23T01:13:54;17.10;72.50
47368;DHT22;34646;47.964;7.982;2022-11-23T01:19:54;17.10;72.50
47368;DHT22;34646;47.964;7.982;2022-11-23T01:25:55;17.10;72.50
47368;DHT22;34646;47.964;7.982;2022-11-23T01:31:56;17.10;72.50
47368;DHT22;34646;47.964;7.982;2022-11-23T01:37:57;17.10;72.40
47368;DHT22;34646;47.964;7.982;2022-11-23T01:43:58;17.00;72.40
47368;DHT22;34646;47.964;7.982;2022-11-23T01:49:59;17.00;72.40
47368;DHT22;34646;47.964;7.982;2022-11-23T01:56:02;17.00;72.40
47368;DHT22;34646;47.964;7.982;2022-11-23T02:02:04;17.00;72.40
47368;DHT22;34646;47.964;7.982;2022-11-23T02:08:06;17.00;72.40
47368;DHT22;34646;47.964;7.982;2022-11-23T02:14:08;17.00;72.40
47368;DHT22;34646;47.964;7.982;2022-11-23T02:20:12;17.00;72.40
47368;DHT22;34646;47.964;7.982;2022-11-23T02:26:26;17.00;72.40
47368;DHT22;34646;47.964;7.982;2022-11-23T02:32:27;17.00;73.00
47368;DHT22;34646;47.964;7.982;2022-11-23T02:38:31;17.00;72.40
47368;DHT22;34646;47.964;7.982;2022-11-23T02:50:37;16.90;72.30
47368;DHT22;34646;47.964;7.982;2022-11-23T02:56:38;17.00;72.40
47368;DHT22;34646;47.964;7.982;2022-11-23T03:02:38;16.90;72.40
47368;DHT22;34646;47.964;7.982;2022-11-23T03:08:39;16.90;72.30
47368;DHT22;34646;47.964;7.982;2022-11-23T03:14:40;16.90;72.30
47368;DHT22;34646;47.964;7.982;2022-11-23T03:20:41;16.90;72.30
47368;DHT22;34646;47.964;7.982;2022-11-23T03:26:42;16.90;72.30
47368;DHT22;34646;47.964;7.982;2022-11-23T03:32:46;16.90;72.30
47368;DHT22;34646;47.964;7.982;2022-11-23T03:38:47;16.90;72.30
47368;DHT22;34646;47.964;7.982;2022-11-23T03:45:08;16.80;72.30
47368;DHT22;34646;47.964;7.982;2022-11-23T03:51:09;16.80;72.30
47368;DHT22;34646;47.964;7.982;2022-11-23T03:57:10;16.80;72.20
47368;DHT22;34646;47.964;7.982;2022-11-23T04:03:11;16.80;72.30
47368;DHT22;34646;47.964;7.982;2022-11-23T04:09:31;16.80;72.30
47368;DHT22;34646;47.964;7.982;2022-11-23T04:15:50;16.80;72.30
47368;DHT22;34646;47.964;7.982;2022-11-23T04:21:51;16.80;72.30
47368;DHT22;34646;47.964;7.982;2022-11-23T04:27:52;16.80;72.30
47368;DHT22;34646;47.964;7.982;2022-11-23T04:33:54;16.80;72.30
47368;DHT22;34646;47.964;7.982;2022-11-23T04:39:57;16.80;72.40
47368;DHT22;34646;47.964;7.982;2022-11-23T04:46:10;16.70;72.30
47368;DHT22;34646;47.964;7.982;2022-11-23T04:52:11;16.70;72.20
47368;DHT22;34646;47.964;7.982;2022-11-23T04:58:18;16.80;72.20
47368;DHT22;34646;47.964;7.982;2022-11-23T05:04:22;16.80;72.10
47368;DHT22;34646;47.964;7.982;2022-11-23T05:10:24;16.80;72.10
47368;DHT22;34646;47.964;7.982;2022-11-23T05:16:28;16.80;72.00
47368;DHT22;34646;47.964;7.982;2022-11-23T05:22:28;16.80;72.00
47368;DHT22;34646;47.964;7.982;2022-11-23T05:28:29;16.80;72.00
47368;DHT22;34646;47.964;7.982;2022-11-23T05:34:30;16.80;72.00
47368;DHT22;34646;47.964;7.982;2022-11-23T05:40:31;16.80;72.00
47368;DHT22;34646;47.964;7.982;2022-11-23T05:46:35;16.80;72.00
47368;DHT22;34646;47.964;7.982;2022-11-23T05:52:36;16.80;72.10
47368;DHT22;34646;47.964;7.982;2022-11-23T05:58:37;16.80;72.40
47368;DHT22;34646;47.964;7.982;2022-11-23T06:04:37;16.50;71.10
47368;DHT22;34646;47.964;7.982;2022-11-23T06:10:41;16.60;70.90
47368;DHT22;34646;47.964;7.982;2022-11-23T06:16:42;16.70;70.90
47368;DHT22;34646;47.964;7.982;2022-11-23T06:22:53;16.70;70.90
47368;DHT22;34646;47.964;7.982;2022-11-23T06:28:57;16.90;70.90
47368;DHT22;34646;47.964;7.982;2022-11-23T06:34:58;16.90;70.80
47368;DHT22;34646;47.964;7.982;2022-11-23T06:40:59;17.00;70.80
47368;DHT22;34646;47.964;7.982;2022-11-23T06:47:02;17.00;70.80
47368;DHT22;34646;47.964;7.982;2022-11-23T06:53:03;17.00;70.80
47368;DHT22;34646;47.964;7.982;2022-11-23T06:59:16;17.10;70.80
47368;DHT22;34646;47.964;7.982;2022-11-23T07:05:17;17.10;70.70
47368;DHT22;34646;47.964;7.982;2022-11-23T07:11:19;17.20;70.70
47368;DHT22;34646;47.964;7.982;2022-11-23T07:17:19;17.20;70.70
47368;DHT22;34646;47.964;7.982;2022-11-23T07:23:21;17.20;70.60
47368;DHT22;34646;47.964;7.982;2022-11-23T07:29:21;17.20;70.70
47368;DHT22;34646;47.964;7.982;2022-11-23T07:35:22;17.30;70.70
47368;DHT22;34646;47.964;7.982;2022-11-23T07:41:23;17.30;70.80
47368;DHT22;34646;47.964;7.982;2022-11-23T07:47:38;17.20;70.70
47368;DHT22;34646;47.964;7.982;2022-11-23T07:53:39;17.20;70.70
47368;DHT22;34646;47.964;7.982;2022-11-23T07:59:40;17.30;70.90
47368;DHT22;34646;47.964;7.982;2022-11-23T08:05:41;17.30;70.90
47368;DHT22;34646;47.964;7.982;2022-11-23T08:11:41;17.30;70.90
47368;DHT22;34646;47.964;7.982;2022-11-23T08:17:42;17.30;70.90
47368;DHT22;34646;47.964;7.982;2022-11-23T08:23:43;17.30;70.90
47368;DHT22;34646;47.964;7.982;2022-11-23T08:29:43;17.30;71.00
47368;DHT22;34646;47.964;7.982;2022-11-23T08:35:44;17.30;71.00
47368;DHT22;34646;47.964;7.982;2022-11-23T08:41:45;17.30;71.00
47368;DHT22;34646;47.964;7.982;2022-11-23T08:47:46;17.30;71.00
47368;DHT22;34646;47.964;7.982;2022-11-23T08:53:46;17.30;71.00
47368;DHT22;34646;47.964;7.982;2022-11-23T08:59:47;17.30;71.00
47368;DHT22;34646;47.964;7.982;2022-11-23T09:05:48;17.30;71.00
47368;DHT22;34646;47.964;7.982;2022-11-23T09:11:50;17.30;71.00
47368;DHT22;34646;47.964;7.982;2022-11-23T09:17:52;17.30;71.00
47368;DHT22;34646;47.964;7.982;2022-11-23T09:23:52;17.30;71.00
47368;DHT22;34646;47.964;7.982;2022-11-23T09:29:53;17.30;71.00
47368;DHT22;34646;47.964;7.982;2022-11-23T09:36:01;17.30;71.00
47368;DHT22;34646;47.964;7.982;2022-11-23T09:49:12;17.40;71.10
47368;DHT22;34646;47.964;7.982;2022-11-23T10:01:21;17.40;71.10
47368;DHT22;34646;47.964;7.982;2022-11-23T10:07:38;17.30;71.00
47368;DHT22;34646;47.964;7.982;2022-11-23T10:13:44;17.40;71.00
47368;DHT22;34646;47.964;7.982;2022-11-23T10:25:50;17.40;71.00
47368;DHT22;34646;47.964;7.982;2022-11-23T10:31:52;17.40;71.00
47368;DHT22;34646;47.964;7.982;2022-11-23T10:50:33;17.40;70.90
47368;DHT22;34646;47.964;7.982;2022-11-23T10:56:45;17.40;70.90
47368;DHT22;34646;47.964;7.982;2022-11-23T11:02:52;17.40;70.90
47368;DHT22;34646;47.964;7.982;2022-11-23T11:09:00;17.40;71.50
47368;DHT22;34646;47.964;7.982;2022-11-23T11:15:15;17.40;70.80
47368;DHT22;34646;47.964;7.982;2022-11-23T11:27:23;17.40;70.80
47368;DHT22;34646;47.964;7.982;2022-11-23T11:33:41;17.60;70.80
47368;DHT22;34646;47.964;7.982;2022-11-23T11:39:54;17.60;70.70
47368;DHT22;34646;47.964;7.982;2022-11-23T11:46:03;17.60;70.80
47368;DHT22;34646;47.964;7.982;2022-11-23T11:52:17;17.50;70.30
47368;DHT22;34646;47.964;7.982;2022-11-23T11:58:23;17.70;70.00
47368;DHT22;34646;47.964;7.982;2022-11-23T12:04:34;17.90;70.30
47368;DHT22;34646;47.964;7.982;2022-11-23T12:10:47;17.90;70.40
47368;DHT22;34646;47.964;7.982;2022-11-23T12:36:31;18.40;70.90
47368;DHT22;34646;47.964;7.982;2022-11-23T12:42:40;18.50;70.80
47368;DHT22;34646;47.964;7.982;2022-11-23T13:01:33;18.50;71.20
47368;DHT22;34646;47.964;7.982;2022-11-23T13:14:27;18.50;71.20
47368;DHT22;34646;47.964;7.982;2022-11-23T13:26:44;18.50;71.10
47368;DHT22;34646;47.964;7.982;2022-11-23T13:39:00;18.50;71.30
47368;DHT22;34646;47.964;7.982;2022-11-23T13:45:28;18.50;71.30
47368;DHT22;34646;47.964;7.982;2022-11-23T13:51:31;18.60;71.30
47368;DHT22;34646;47.964;7.982;2022-11-23T13:57:33;18.60;71.30
47368;DHT22;34646;47.964;7.982;2022-11-23T14:03:45;18.60;71.40
47368;DHT22;34646;47.964;7.982;2022-11-23T14:16:12;18.50;71.50
47368;DHT22;34646;47.964;7.982;2022-11-23T14:40:53;18.40;71.30
47368;DHT22;34646;47.964;7.982;2022-11-23T14:47:02;18.40;71.30
47368;DHT22;34646;47.964;7.982;2022-11-23T14:53:05;18.30;71.40
47368;DHT22;34646;47.964;7.982;2022-11-23T14:59:30;18.30;71.30
47368;DHT22;34646;47.964;7.982;2022-11-23T15:05:32;18.30;71.50
47368;DHT22;34646;47.964;7.982;2022-11-23T15:11:36;18.30;71.50
47368;DHT22;34646;47.964;7.982;2022-11-23T15:17:59;18.30;71.70
47368;DHT22;34646;47.964;7.982;2022-11-23T15:24:00;18.30;71.60
47368;DHT22;34646;47.964;7.982;2022-11-23T15:30:01;18.30;71.60
47368;DHT22;34646;47.964;7.982;2022-11-23T15:36:02;18.30;71.60
47368;DHT22;34646;47.964;7.982;2022-11-23T15:42:03;18.30;71.60
47368;DHT22;34646;47.964;7.982;2022-11-23T15:48:16;18.30;71.80
47368;DHT22;34646;47.964;7.982;2022-11-23T15:54:20;18.30;71.90
47368;DHT22;34646;47.964;7.982;2022-11-23T16:00:24;18.30;72.10
47368;DHT22;34646;47.964;7.982;2022-11-23T16:06:46;18.30;72.00
47368;DHT22;34646;47.964;7.982;2022-11-23T16:12:55;18.20;71.90
47368;DHT22;34646;47.964;7.982;2022-11-23T16:18:56;18.30;72.00
47368;DHT22;34646;47.964;7.982;2022-11-23T16:25:30;18.20;71.90
47368;DHT22;34646;47.964;7.982;2022-11-23T16:31:39;18.20;71.90
47368;DHT22;34646;47.964;7.982;2022-11-23T16:37:40;18.20;71.90
47368;DHT22;34646;47.964;7.982;2022-11-23T16:43:41;18.20;71.90
47368;DHT22;34646;47.964;7.982;2022-11-23T16:49:42;18.20;71.80
47368;DHT22;34646;47.964;7.982;2022-11-23T16:55:48;18.20;71.80
47368;DHT22;34646;47.964;7.982;2022-11-23T17:01:49;18.10;71.60
47368;DHT22;34646;47.964;7.982;2022-11-23T17:07:50;18.20;71.60
47368;DHT22;34646;47.964;7.982;2022-11-23T17:13:53;18.20;71.60
47368;DHT22;34646;47.964;7.982;2022-11-23T17:19:55;18.20;71.50
47368;DHT22;34646;47.964;7.982;2022-11-23T17:25:55;18.30;71.50
47368;DHT22;34646;47.964;7.982;2022-11-23T17:31:56;18.20;71.50
47368;DHT22;34646;47.964;7.982;2022-11-23T17:37:57;18.20;71.60
47368;DHT22;34646;47.964;7.982;2022-11-23T17:43:58;18.20;71.60
47368;DHT22;34646;47.964;7.982;2022-11-23T17:49:59;18.20;71.80
47368;DHT22;34646;47.964;7.982;2022-11-23T17:56:00;18.20;71.90
47368;DHT22;34646;47.964;7.982;2022-11-23T18:02:00;18.20;72.20
47368;DHT22;34646;47.964;7.982;2022-11-23T18:08:01;18.30;72.40
47368;DHT22;34646;47.964;7.982;2022-11-23T18:14:02;18.30;72.50
47368;DHT22;34646;47.964;7.982;2022-11-23T18:20:04;18.30;72.50
47368;DHT22;34646;47.964;7.982;2022-11-23T18:26:14;18.20;72.60
47368;DHT22;34646;47.964;7.982;2022-11-23T18:32:16;18.20;72.70
47368;DHT22;34646;47.964;7.982;2022-11-23T18:38:17;18.20;72.60
47368;DHT22;34646;47.964;7.982;2022-11-23T18:44:17;18.10;72.60
47368;DHT22;34646;47.964;7.982;2022-11-23T18:50:18;18.10;72.60
47368;DHT22;34646;47.964;7.982;2022-11-23T18:56:19;18.10;72.60
47368;DHT22;34646;47.964;7.982;2022-11-23T19:02:20;18.10;72.50
47368;DHT22;34646;47.964;7.982;2022-11-23T19:08:21;18.10;72.50
47368;DHT22;34646;47.964;7.982;2022-11-23T19:14:21;18.10;72.50
47368;DHT22;34646;47.964;7.982;2022-11-23T19:20:22;18.10;72.40
47368;DHT22;34646;47.964;7.982;2022-11-23T19:26:24;18.10;72.60
47368;DHT22;34646;47.964;7.982;2022-11-23T19:32:24;18.10;72.70
47368;DHT22;34646;47.964;7.982;2022-11-23T19:38:25;18.10;72.60
47368;DHT22;34646;47.964;7.982;2022-11-23T19:44:26;18.10;72.40
47368;DHT22;34646;47.964;7.982;2022-11-23T19:50:27;18.00;72.50
47368;DHT22;34646;47.964;7.982;2022-11-23T19:56:28;18.10;72.30
47368;DHT22;34646;47.964;7.982;2022-11-23T20:02:29;18.00;72.30
47368;DHT22;34646;47.964;7.982;2022-11-23T20:08:30;18.10;72.40
47368;DHT22;34646;47.964;7.982;2022-11-23T20:14:31;18.10;72.60
47368;DHT22;34646;47.964;7.982;2022-11-23T20:20:31;18.10;72.60
47368;DHT22;34646;47.964;7.982;2022-11-23T20:26:33;18.10;72.60
47368;DHT22;34646;47.964;7.982;2022-11-23T20:32:35;18.10;72.90
47368;DHT22;34646;47.964;7.982;2022-11-23T20:38:38;18.10;73.00
47368;DHT22;34646;47.964;7.982;2022-11-23T20:44:38;18.10;73.10
47368;DHT22;34646;47.964;7.982;2022-11-23T20:50:39;18.10;73.00
47368;DHT22;34646;47.964;7.982;2022-11-23T20:56:40;18.10;72.90
47368;DHT22;34646;47.964;7.982;2022-11-23T21:02:41;18.10;73.00
47368;DHT22;34646;47.964;7.982;2022-11-23T21:08:43;18.10;73.10
47368;DHT22;34646;47.964;7.982;2022-11-23T21:14:44;18.00;73.20
47368;DHT22;34646;47.964;7.982;2022-11-23T21:20:45;18.10;73.30
47368;DHT22;34646;47.964;7.982;2022-11-23T21:26:47;18.10;73.40
47368;DHT22;34646;47.964;7.982;2022-11-23T21:32:50;18.00;73.30
47368;DHT22;34646;47.964;7.982;2022-11-23T21:38:51;18.00;73.50
47368;DHT22;34646;47.964;7.982;2022-11-23T21:44:52;18.00;73.50
47368;DHT22;34646;47.964;7.982;2022-11-23T21:51:05;18.00;73.60
47368;DHT22;34646;47.964;7.982;2022-11-23T21:57:06;18.10;73.30
47368;DHT22;34646;47.964;7.982;2022-11-23T22:03:08;18.00;73.10
47368;DHT22;34646;47.964;7.982;2022-11-23T22:09:11;18.00;73.00
47368;DHT22;34646;47.964;7.982;2022-11-23T22:15:12;18.00;72.90
47368;DHT22;34646;47.964;7.982;2022-11-23T22:21:13;18.00;72.90
47368;DHT22;34646;47.964;7.982;2022-11-23T22:27:14;18.00;72.90
47368;DHT22;34646;47.964;7.982;2022-11-23T22:33:15;17.90;72.80
47368;DHT22;34646;47.964;7.982;2022-11-23T22:39:16;17.90;72.80
47368;DHT22;34646;47.964;7.982;2022-11-23T22:45:16;17.90;72.80
47368;DHT22;34646;47.964;7.982;2022-11-23T22:51:21;17.90;72.80
47368;DHT22;34646;47.964;7.982;2022-11-23T22:57:22;17.90;72.70
47368;DHT22;34646;47.964;7.982;2022-11-23T23:03:23;17.90;72.70
47368;DHT22;34646;47.964;7.982;2022-11-23T23:09:23;17.90;72.70
47368;DHT22;34646;47.964;7.982;2022-11-23T23:15:24;17.90;72.70
47368;DHT22;34646;47.964;7.982;2022-11-23T23:21:26;17.80;72.70
47368;DHT22;34646;47.964;7.982;2022-11-23T23:27:27;17.90;72.70
47368;DHT22;34646;47.964;7.982;2022-11-23T23:33:28;17.80;72.60
47368;DHT22;34646;47.964;7.982;2022-11-23T23:39:31;17.80;73.20
47368;DHT22;34646;47.964;7.982;2022-11-23T23:45:32;17.80;72.60
47368;DHT22;34646;47.964;7.982;2022-11-23T23:51:32;17.80;72.60
47368;DHT22;34646;47.964;7.982;2022-11-23T23:57:33;17.80;72.50
